createdAt,value
2023-08-29T00:01:44.824Z,53.27
2023-08-29T00:04:12.370Z,53.48
2023-08-29T00:06:39.590Z,53.66
2023-08-29T00:09:07.338Z,53.69
2023-08-29T00:11:35.214Z,53.95
2023-08-29T00:14:02.424Z,54.14
2023-08-29T00:16:29.583Z,54.31
2023-08-29T00:18:56.742Z,54.43
2023-08-29T00:21:23.972Z,54.53
2023-08-29T00:23:50.974Z,54.67
2023-08-29T00:26:18.138Z,54.83
2023-08-29T00:28:45.538Z,54.94
2023-08-29T00:31:12.701Z,55.02
2023-08-29T00:33:40.032Z,55.13
2023-08-29T00:36:07.168Z,55.16
2023-08-29T00:38:36.520Z,55.22
2023-08-29T00:41:04.496Z,55.29
2023-08-29T00:43:31.976Z,55.33
2023-08-29T00:46:01.201Z,55.35
2023-08-29T00:48:28.436Z,55.40
2023-08-29T00:50:55.641Z,55.39
2023-08-29T00:53:24.238Z,55.39
2023-08-29T00:55:52.093Z,55.40
2023-08-29T00:58:19.904Z,55.38
2023-08-29T01:00:47.261Z,55.39
2023-08-29T01:03:14.669Z,55.36
2023-08-29T01:05:41.915Z,55.35
2023-08-29T01:08:09.262Z,55.42
2023-08-29T01:11:04.680Z,55.48
2023-08-29T01:13:44.771Z,55.57
2023-08-29T01:16:13.790Z,55.64
2023-08-29T01:18:41.609Z,55.69
2023-08-29T01:21:18.650Z,55.71
2023-08-29T01:23:49.474Z,55.79
2023-08-29T01:26:17.403Z,55.80
2023-08-29T01:28:46.688Z,55.85
2023-08-29T01:31:14.588Z,55.90
2023-08-29T01:33:42.350Z,55.92
2023-08-29T01:36:09.681Z,55.92
2023-08-29T01:38:36.886Z,55.89
2023-08-29T01:41:04.260Z,55.92
2023-08-29T01:43:31.529Z,55.88
2023-08-29T01:45:58.674Z,55.85
2023-08-29T01:48:26.341Z,55.73
2023-08-29T01:50:53.937Z,55.78
2023-08-29T01:53:21.046Z,55.79
2023-08-29T01:55:48.954Z,55.80
2023-08-29T01:58:16.824Z,55.86
2023-08-29T02:00:44.890Z,55.83
2023-08-29T02:03:12.274Z,55.85
2023-08-29T02:05:41.489Z,55.91
2023-08-29T02:08:08.950Z,55.95
2023-08-29T02:10:36.514Z,56.01
2023-08-29T02:13:03.891Z,56.08
2023-08-29T02:15:31.119Z,56.10
2023-08-29T02:17:59.296Z,56.14
2023-08-29T02:20:26.573Z,56.17
2023-08-29T02:22:54.040Z,56.14
2023-08-29T02:25:21.233Z,56.10
2023-08-29T02:27:48.440Z,56.08
2023-08-29T02:30:16.298Z,56.11
2023-08-29T02:32:43.649Z,56.08
2023-08-29T02:35:11.895Z,56.03
2023-08-29T02:37:39.052Z,56.01
2023-08-29T02:40:09.080Z,55.99
2023-08-29T02:42:37.189Z,55.97
2023-08-29T02:45:04.957Z,55.92
2023-08-29T02:47:32.062Z,55.92
2023-08-29T02:49:59.294Z,55.88
2023-08-29T02:52:26.449Z,55.82
2023-08-29T02:54:53.938Z,55.82
2023-08-29T02:57:21.556Z,55.79
2023-08-29T02:59:48.728Z,55.78
2023-08-29T03:02:15.908Z,55.73
2023-08-29T03:04:43.107Z,55.74
2023-08-29T03:07:10.404Z,55.76
2023-08-29T03:09:37.417Z,55.77
2023-08-29T03:12:05.928Z,55.77
2023-08-29T03:14:33.049Z,55.80
2023-08-29T03:17:00.207Z,55.83
2023-08-29T03:19:27.747Z,55.84
2023-08-29T03:21:54.991Z,55.88
2023-08-29T03:24:22.293Z,55.93
2023-08-29T03:26:49.573Z,55.94
2023-08-29T03:29:17.115Z,55.99
2023-08-29T03:31:45.236Z,56.02
2023-08-29T03:34:12.809Z,56.04
2023-08-29T03:36:39.966Z,56.07
2023-08-29T03:39:07.060Z,56.09
2023-08-29T03:41:34.833Z,56.17
2023-08-29T03:44:02.134Z,56.18
2023-08-29T03:46:30.336Z,56.28
2023-08-29T03:48:58.147Z,56.38
2023-08-29T03:51:25.321Z,56.44
2023-08-29T03:53:53.393Z,56.52
2023-08-29T03:56:20.591Z,56.50
2023-08-29T03:58:49.672Z,56.67
2023-08-29T04:01:20.271Z,56.80
2023-08-29T04:03:49.609Z,56.85
2023-08-29T04:06:21.804Z,56.98
2023-08-29T04:08:48.841Z,56.97
2023-08-29T04:11:16.167Z,57.10
2023-08-29T04:13:43.766Z,57.23
2023-08-29T04:16:11.015Z,57.38
2023-08-29T04:18:38.697Z,57.55
2023-08-29T04:21:06.156Z,57.54
2023-08-29T04:23:33.279Z,57.72
2023-08-29T04:26:01.577Z,57.99
2023-08-29T04:28:28.942Z,58.09
2023-08-29T04:30:56.338Z,58.22
2023-08-29T04:33:25.605Z,58.36
2023-08-29T04:35:53.224Z,58.52
2023-08-29T04:38:20.422Z,58.60
2023-08-29T04:40:47.714Z,58.62
2023-08-29T04:43:14.704Z,58.79
2023-08-29T04:45:43.982Z,58.86
2023-08-29T04:48:11.499Z,58.97
2023-08-29T04:50:40.220Z,58.92
2023-08-29T04:53:07.402Z,58.92
2023-08-29T04:55:34.558Z,58.78
2023-08-29T04:58:01.856Z,58.78
2023-08-29T05:00:29.634Z,58.76
2023-08-29T05:02:57.218Z,58.68
2023-08-29T05:05:24.707Z,58.50
2023-08-29T05:07:51.877Z,58.40
2023-08-29T05:10:20.949Z,58.37
2023-08-29T05:12:48.227Z,58.28
2023-08-29T05:15:17.098Z,58.29
2023-08-29T05:17:46.264Z,58.25
2023-08-29T05:20:13.657Z,58.01
2023-08-29T05:22:41.135Z,57.97
2023-08-29T05:25:10.847Z,57.89
2023-08-29T05:27:38.081Z,57.77
2023-08-29T05:30:07.086Z,57.59
2023-08-29T05:32:34.568Z,57.47
2023-08-29T05:35:01.865Z,57.38
2023-08-29T05:37:29.069Z,57.39
2023-08-29T05:39:56.424Z,57.13
2023-08-29T05:42:23.646Z,57.05
2023-08-29T05:44:50.884Z,56.99
2023-08-29T05:47:18.336Z,57.07
2023-08-29T05:49:45.411Z,57.03
2023-08-29T05:52:12.543Z,56.85
2023-08-29T05:54:40.000Z,56.87
2023-08-29T05:57:07.491Z,56.71
2023-08-29T05:59:34.886Z,56.67
2023-08-29T06:02:03.719Z,56.62
2023-08-29T06:04:31.182Z,56.64
2023-08-29T06:06:58.194Z,56.45
2023-08-29T06:09:25.375Z,56.26
2023-08-29T06:11:52.656Z,56.11
2023-08-29T06:14:19.801Z,56.00
2023-08-29T06:16:47.070Z,55.98
2023-08-29T06:19:14.245Z,55.89
2023-08-29T06:21:41.496Z,55.74
2023-08-29T06:24:08.949Z,55.60
2023-08-29T06:26:37.918Z,55.48
2023-08-29T06:29:05.058Z,55.28
2023-08-29T06:31:32.496Z,55.29
2023-08-29T06:34:00.378Z,55.02
2023-08-29T06:36:28.133Z,54.71
2023-08-29T06:38:55.281Z,54.37
2023-08-29T06:41:22.719Z,54.19
2023-08-29T06:43:49.916Z,54.09
2023-08-29T06:46:17.104Z,53.72
2023-08-29T06:48:44.461Z,53.60
2023-08-29T06:51:12.945Z,53.20
2023-08-29T06:53:40.303Z,53.19
2023-08-29T06:56:07.591Z,52.76
2023-08-29T06:58:35.042Z,52.70
2023-08-29T07:01:02.372Z,52.59
2023-08-29T07:03:29.810Z,52.40
2023-08-29T07:05:56.940Z,52.34
2023-08-29T07:08:24.257Z,52.08
2023-08-29T07:10:51.335Z,51.97
2023-08-29T07:13:18.547Z,51.19
2023-08-29T07:15:45.688Z,50.98
2023-08-29T07:18:13.788Z,50.85
2023-08-29T07:20:41.126Z,50.45
2023-08-29T07:23:08.255Z,49.64
2023-08-29T07:25:39.790Z,49.47
2023-08-29T07:28:11.010Z,48.58
2023-08-29T07:30:47.213Z,47.94
2023-08-29T07:33:15.317Z,47.56
2023-08-29T07:35:43.392Z,46.04
2023-08-29T07:38:10.935Z,44.55
2023-08-29T07:40:38.386Z,43.78
2023-08-29T07:43:08.188Z,43.53
2023-08-29T07:45:35.514Z,42.72
2023-08-29T07:48:03.430Z,42.41
2023-08-29T07:50:30.677Z,41.79
2023-08-29T07:52:58.185Z,41.75
2023-08-29T07:55:25.670Z,40.94
2023-08-29T07:57:52.858Z,40.70
2023-08-29T08:00:20.279Z,40.63
2023-08-29T08:02:47.523Z,39.69
2023-08-29T08:05:16.070Z,39.43
2023-08-29T08:07:45.776Z,38.94
2023-08-29T08:10:14.735Z,39.08
2023-08-29T08:12:42.001Z,38.33
2023-08-29T08:15:10.142Z,37.83
2023-08-29T08:17:37.888Z,36.89
2023-08-29T08:20:08.311Z,36.47
2023-08-29T08:22:36.708Z,35.83
2023-08-29T08:25:04.828Z,35.70
2023-08-29T08:27:32.063Z,35.84
2023-08-29T08:30:00.362Z,34.28
2023-08-29T08:32:27.892Z,34.24
2023-08-29T08:34:56.268Z,34.63
2023-08-29T08:37:23.527Z,33.92
2023-08-29T08:39:50.797Z,34.20
2023-08-29T08:42:19.462Z,34.28
2023-08-29T08:44:46.903Z,33.82
2023-08-29T08:47:14.232Z,34.02
2023-08-29T08:49:41.645Z,33.61
2023-08-29T08:52:11.648Z,33.88
2023-08-29T08:54:39.653Z,33.18
2023-08-29T08:57:07.256Z,33.05
2023-08-29T08:59:34.921Z,31.67
2023-08-29T09:02:01.971Z,31.51
2023-08-29T09:04:29.269Z,30.76
2023-08-29T09:06:56.532Z,31.42
2023-08-29T09:09:23.927Z,30.46
2023-08-29T09:11:52.932Z,31.07
2023-08-29T09:14:20.978Z,30.66
2023-08-29T09:16:53.581Z,30.88
2023-08-29T09:19:23.058Z,30.55
2023-08-29T09:21:51.143Z,29.67
2023-08-29T09:24:35.899Z,30.00
2023-08-29T09:27:08.672Z,29.39
2023-08-29T09:29:35.974Z,29.82
2023-08-29T09:32:15.928Z,29.54
2023-08-29T09:34:42.987Z,29.19
2023-08-29T09:37:12.837Z,29.28
2023-08-29T09:39:39.952Z,29.38
2023-08-29T09:42:10.476Z,29.17
2023-08-29T09:44:39.269Z,28.95
2023-08-29T09:47:07.390Z,29.50
2023-08-29T09:49:49.264Z,28.77
2023-08-29T09:52:17.577Z,28.75
2023-08-29T09:54:52.265Z,29.05
2023-08-29T09:57:23.760Z,29.00
2023-08-29T09:59:52.477Z,28.72
2023-08-29T10:02:21.299Z,28.74
2023-08-29T10:04:58.290Z,29.02
2023-08-29T10:07:27.639Z,28.79
2023-08-29T10:09:55.962Z,28.79
2023-08-29T10:12:23.481Z,28.15
2023-08-29T10:14:50.754Z,27.87
2023-08-29T10:17:31.117Z,28.04
2023-08-29T10:19:47.573Z,27.83
2023-08-29T10:22:14.887Z,28.23
2023-08-29T10:24:44.279Z,27.82
2023-08-29T10:27:11.460Z,27.51
2023-08-29T10:29:38.716Z,27.94
2023-08-29T10:32:06.353Z,28.12
2023-08-29T10:34:33.657Z,27.14
2023-08-29T10:37:00.689Z,27.14
2023-08-29T10:39:28.332Z,27.34
2023-08-29T10:41:56.853Z,27.09
2023-08-29T10:44:45.130Z,27.26
2023-08-29T10:47:23.596Z,26.75
2023-08-29T10:49:59.380Z,26.65
2023-08-29T10:52:40.871Z,26.45
2023-08-29T10:55:20.679Z,26.64
2023-08-29T10:57:48.707Z,26.93
2023-08-29T11:00:20.892Z,26.04
2023-08-29T11:02:48.859Z,26.48
2023-08-29T11:05:16.952Z,26.42
2023-08-29T11:07:44.222Z,27.00
2023-08-29T11:10:18.539Z,26.85
2023-08-29T11:13:06.818Z,26.43
2023-08-29T11:15:55.951Z,26.23
2023-08-29T11:18:30.152Z,26.64
2023-08-29T11:20:57.492Z,26.69
2023-08-29T11:23:24.452Z,26.05
2023-08-29T11:25:53.079Z,26.18
2023-08-29T11:28:20.210Z,26.02
2023-08-29T11:30:47.679Z,25.71
2023-08-29T11:33:16.051Z,26.09
2023-08-29T11:35:43.260Z,26.04
2023-08-29T11:38:10.678Z,26.20
2023-08-29T11:40:49.116Z,26.42
2023-08-29T11:43:19.086Z,25.30
2023-08-29T11:45:45.619Z,25.54
2023-08-29T11:48:10.790Z,25.47
2023-08-29T11:50:41.472Z,25.41
2023-08-29T11:53:08.643Z,25.37
2023-08-29T11:55:36.334Z,25.04
2023-08-29T11:58:05.290Z,25.70
2023-08-29T12:00:32.815Z,25.87
2023-08-29T12:03:00.002Z,25.22
2023-08-29T12:05:27.490Z,25.23
2023-08-29T12:07:54.665Z,25.42
2023-08-29T12:10:22.015Z,25.28
2023-08-29T12:12:49.301Z,25.26
2023-08-29T12:15:24.313Z,25.73
2023-08-29T12:17:49.317Z,25.68
2023-08-29T12:20:20.478Z,25.75
2023-08-29T12:22:50.076Z,25.94
2023-08-29T12:25:19.494Z,26.17
2023-08-29T12:27:47.253Z,25.78
2023-08-29T12:30:15.112Z,25.98
2023-08-29T12:32:43.719Z,26.32
2023-08-29T12:35:12.110Z,26.50
2023-08-29T12:37:39.519Z,26.65
2023-08-29T12:40:09.465Z,26.42
2023-08-29T12:42:37.432Z,25.60
2023-08-29T12:45:06.672Z,25.30
2023-08-29T12:47:34.767Z,25.08
2023-08-29T12:50:02.137Z,25.36
2023-08-29T12:52:29.256Z,25.43
2023-08-29T12:54:56.339Z,25.19
2023-08-29T12:57:23.347Z,25.28
2023-08-29T12:59:50.738Z,25.38
2023-08-29T13:02:17.919Z,25.59
2023-08-29T13:04:46.447Z,25.99
2023-08-29T13:07:13.734Z,25.72
2023-08-29T13:09:42.198Z,25.58
2023-08-29T13:12:09.270Z,25.42
2023-08-29T13:14:40.044Z,25.82
2023-08-29T13:17:07.379Z,25.97
2023-08-29T13:19:34.714Z,25.22
2023-08-29T13:22:02.923Z,25.41
2023-08-29T13:24:30.130Z,25.43
2023-08-29T13:26:57.436Z,25.74
2023-08-29T13:29:24.865Z,25.80
2023-08-29T13:31:52.798Z,25.77
2023-08-29T13:34:20.084Z,25.47
2023-08-29T13:36:47.437Z,25.32
2023-08-29T13:39:14.703Z,25.49
2023-08-29T13:41:43.112Z,25.63
2023-08-29T13:44:11.174Z,25.95
2023-08-29T13:46:40.241Z,25.53
2023-08-29T13:49:07.602Z,24.90
2023-08-29T13:51:34.969Z,24.81
2023-08-29T13:54:02.330Z,24.78
2023-08-29T13:56:29.570Z,25.05
2023-08-29T13:58:58.412Z,25.39
2023-08-29T14:01:25.686Z,25.44
2023-08-29T14:03:53.228Z,25.28
2023-08-29T14:06:20.762Z,25.49
2023-08-29T14:08:48.953Z,25.41
2023-08-29T14:11:16.288Z,25.25
2023-08-29T14:13:43.643Z,25.20
2023-08-29T14:16:11.058Z,25.20
2023-08-29T14:18:40.626Z,25.22
2023-08-29T14:21:09.007Z,25.29
2023-08-29T14:23:36.251Z,25.28
2023-08-29T14:26:03.828Z,25.20
2023-08-29T14:28:31.025Z,25.09
2023-08-29T14:30:58.697Z,25.33
2023-08-29T14:33:25.936Z,25.08
2023-08-29T14:35:56.288Z,25.00
2023-08-29T14:38:23.585Z,25.04
2023-08-29T14:40:50.683Z,25.05
2023-08-29T14:43:18.383Z,25.05
2023-08-29T14:45:45.634Z,25.18
2023-08-29T14:48:12.740Z,25.38
2023-08-29T14:50:45.205Z,25.50
2023-08-29T14:53:12.345Z,25.57
2023-08-29T14:55:39.759Z,25.91
2023-08-29T14:58:07.391Z,26.30
2023-08-29T15:00:35.333Z,26.64
2023-08-29T15:03:06.069Z,26.73
2023-08-29T15:05:33.773Z,26.71
2023-08-29T15:08:00.891Z,26.97
2023-08-29T15:10:28.068Z,27.30
2023-08-29T15:12:55.164Z,27.27
2023-08-29T15:15:22.387Z,27.30
2023-08-29T15:17:49.675Z,27.65
2023-08-29T15:20:17.863Z,28.00
2023-08-29T15:22:45.347Z,28.14
2023-08-29T15:25:12.315Z,28.37
2023-08-29T15:27:39.411Z,28.69
2023-08-29T15:30:08.665Z,29.00
2023-08-29T15:32:35.939Z,29.14
2023-08-29T15:35:05.786Z,29.29
2023-08-29T15:37:33.386Z,29.51
2023-08-29T15:40:00.798Z,29.58
2023-08-29T15:42:28.137Z,29.86
2023-08-29T15:44:55.282Z,29.95
2023-08-29T15:47:22.333Z,30.21
2023-08-29T15:49:49.611Z,30.41
2023-08-29T15:52:16.715Z,30.57
2023-08-29T15:54:43.951Z,30.72
2023-08-29T15:57:11.192Z,30.91
2023-08-29T15:59:38.404Z,31.05
2023-08-29T16:02:06.032Z,31.18
2023-08-29T16:04:33.329Z,31.25
2023-08-29T16:07:00.385Z,31.39
2023-08-29T16:09:29.668Z,31.51
2023-08-29T16:11:57.077Z,31.62
2023-08-29T16:14:28.542Z,31.64
2023-08-29T16:16:57.275Z,31.71
2023-08-29T16:19:24.493Z,31.76
2023-08-29T16:21:51.665Z,31.70
2023-08-29T16:24:18.677Z,31.87
2023-08-29T16:26:45.833Z,31.99
2023-08-29T16:29:13.046Z,32.08
2023-08-29T16:31:41.349Z,32.26
2023-08-29T16:34:08.504Z,32.45
2023-08-29T16:36:35.588Z,32.58
2023-08-29T16:39:03.162Z,32.80
2023-08-29T16:41:30.372Z,32.99
2023-08-29T16:43:57.412Z,33.08
2023-08-29T16:46:26.227Z,33.20
2023-08-29T16:48:53.410Z,33.40
2023-08-29T16:51:20.638Z,33.63
2023-08-29T16:53:47.769Z,33.86
2023-08-29T16:56:14.964Z,33.73
2023-08-29T16:58:42.196Z,33.81
2023-08-29T17:01:09.574Z,33.84
2023-08-29T17:03:37.755Z,34.01
2023-08-29T17:06:05.132Z,34.12
2023-08-29T17:08:32.199Z,34.13
2023-08-29T17:10:59.360Z,34.16
2023-08-29T17:13:26.529Z,34.25
2023-08-29T17:15:53.726Z,34.36
2023-08-29T17:18:20.855Z,34.47
2023-08-29T17:20:48.018Z,34.64
2023-08-29T17:23:15.161Z,34.79
2023-08-29T17:25:42.447Z,34.91
2023-08-29T17:28:11.612Z,34.97
2023-08-29T17:30:38.689Z,35.23
2023-08-29T17:33:06.036Z,35.90
2023-08-29T17:35:33.465Z,36.36
2023-08-29T17:38:00.740Z,36.77
2023-08-29T17:40:27.947Z,36.98
2023-08-29T17:42:55.067Z,37.22
2023-08-29T17:45:22.244Z,37.61
2023-08-29T17:47:49.510Z,39.06
2023-08-29T17:50:16.821Z,41.10
2023-08-29T17:52:45.293Z,43.32
2023-08-29T17:55:12.484Z,46.78
2023-08-29T17:57:39.691Z,46.98
2023-08-29T18:00:07.977Z,48.54
2023-08-29T18:02:36.932Z,49.44
2023-08-29T18:05:05.125Z,50.60
2023-08-29T18:07:32.465Z,51.67
2023-08-29T18:10:08.172Z,52.73
2023-08-29T18:12:37.420Z,53.98
2023-08-29T18:15:06.174Z,54.85
2023-08-29T18:17:33.593Z,55.50
2023-08-29T18:20:01.013Z,54.65
2023-08-29T18:22:29.751Z,54.74
2023-08-29T18:24:57.116Z,55.62
2023-08-29T18:27:26.349Z,55.88
2023-08-29T18:29:53.665Z,56.65
2023-08-29T18:32:20.807Z,57.04
2023-08-29T18:34:49.794Z,57.16
2023-08-29T18:37:16.987Z,57.52
2023-08-29T18:39:44.481Z,58.00
2023-08-29T18:42:11.747Z,57.32
2023-08-29T18:44:39.122Z,57.19
2023-08-29T18:47:06.305Z,57.55
2023-08-29T18:49:35.479Z,57.95
2023-08-29T18:52:03.782Z,58.06
2023-08-29T18:54:34.625Z,58.58
2023-08-29T18:57:02.086Z,58.93
2023-08-29T18:59:29.511Z,59.60
2023-08-29T19:01:59.144Z,59.40
2023-08-29T19:04:26.341Z,59.37
2023-08-29T19:06:53.544Z,59.02
2023-08-29T19:09:20.819Z,59.28
2023-08-29T19:11:47.837Z,60.82
2023-08-29T19:14:14.914Z,60.81
2023-08-29T19:16:41.972Z,61.10
2023-08-29T19:19:10.977Z,61.46
2023-08-29T19:21:40.143Z,61.26
2023-08-29T19:24:08.385Z,61.33
2023-08-29T19:26:36.602Z,62.02
2023-08-29T19:29:03.963Z,62.18
2023-08-29T19:31:31.215Z,62.76
2023-08-29T19:33:58.504Z,63.00
2023-08-29T19:36:26.397Z,63.00
2023-08-29T19:38:59.116Z,63.45
2023-08-29T19:41:22.844Z,63.93
2023-08-29T19:43:49.920Z,64.13
2023-08-29T19:46:17.124Z,64.06
2023-08-29T19:48:44.203Z,63.84
2023-08-29T19:51:11.695Z,63.78
2023-08-29T19:53:38.985Z,64.04
2023-08-29T19:56:06.457Z,64.42
2023-08-29T19:58:35.469Z,65.39
2023-08-29T20:01:07.179Z,65.69
2023-08-29T20:03:35.156Z,65.54
2023-08-29T20:06:02.742Z,65.91
2023-08-29T20:08:30.009Z,65.85
2023-08-29T20:10:57.251Z,66.07
2023-08-29T20:13:24.372Z,66.25
2023-08-29T20:15:51.633Z,66.55
2023-08-29T20:18:18.982Z,66.41
2023-08-29T20:20:46.360Z,66.49
2023-08-29T20:23:13.540Z,66.51
2023-08-29T20:25:40.560Z,66.61
2023-08-29T20:28:08.109Z,66.96
2023-08-29T20:30:36.221Z,66.96
2023-08-29T20:33:04.328Z,66.74
2023-08-29T20:35:33.221Z,66.73
2023-08-29T20:38:00.797Z,67.37
2023-08-29T20:40:27.945Z,67.63
2023-08-29T20:42:55.317Z,67.92
2023-08-29T20:45:24.321Z,68.17
2023-08-29T20:47:51.638Z,68.42
2023-08-29T20:50:21.144Z,68.13
2023-08-29T20:52:48.343Z,67.98
2023-08-29T20:55:15.579Z,67.75
2023-08-29T20:57:43.707Z,67.54
2023-08-29T21:00:13.187Z,67.49
2023-08-29T21:02:40.887Z,67.69
2023-08-29T21:05:08.773Z,67.74
2023-08-29T21:07:36.011Z,67.84
2023-08-29T21:10:03.913Z,67.73
2023-08-29T21:12:32.135Z,67.76
2023-08-29T21:14:59.133Z,67.79
2023-08-29T21:17:26.870Z,67.86
2023-08-29T21:19:54.449Z,67.83
2023-08-29T21:22:21.534Z,67.97
2023-08-29T21:24:48.820Z,67.80
2023-08-29T21:27:16.032Z,67.72
2023-08-29T21:29:44.078Z,68.68
2023-08-29T21:32:11.503Z,69.07
2023-08-29T21:34:38.525Z,69.18
2023-08-29T21:37:06.332Z,69.17
2023-08-29T21:39:33.632Z,68.90
2023-08-29T21:42:00.997Z,68.75
2023-08-29T21:44:28.134Z,68.74
2023-08-29T21:46:55.296Z,68.65
2023-08-29T21:49:22.301Z,68.79
2023-08-29T21:51:49.420Z,69.14
2023-08-29T21:54:16.616Z,69.91
2023-08-29T21:56:44.372Z,70.29
2023-08-29T21:59:11.661Z,70.78
2023-08-29T22:01:38.904Z,71.00
2023-08-29T22:04:06.384Z,70.84
2023-08-29T22:06:33.555Z,71.28
2023-08-29T22:09:00.700Z,71.62
2023-08-29T22:11:27.680Z,71.42
2023-08-29T22:13:54.786Z,71.58
2023-08-29T22:16:21.923Z,71.45
2023-08-29T22:18:49.241Z,71.03
2023-08-29T22:21:16.634Z,70.89
2023-08-29T22:23:44.108Z,71.05
2023-08-29T22:26:12.742Z,71.00
2023-08-29T22:28:39.802Z,70.74
2023-08-29T22:31:06.932Z,70.59
2023-08-29T22:33:34.211Z,70.60
2023-08-29T22:36:01.450Z,71.27
2023-08-29T22:38:29.118Z,71.60
2023-08-29T22:41:21.240Z,71.83
2023-08-29T22:43:40.216Z,71.93
2023-08-29T22:46:08.985Z,71.99
2023-08-29T22:48:36.208Z,71.91
2023-08-29T22:51:04.818Z,72.01
2023-08-29T22:53:31.986Z,72.09
2023-08-29T22:56:03.359Z,72.13
2023-08-29T22:58:30.500Z,72.16
2023-08-29T23:00:59.667Z,72.08
2023-08-29T23:03:26.973Z,71.89
2023-08-29T23:05:54.458Z,71.69
2023-08-29T23:08:21.874Z,71.59
2023-08-29T23:10:49.312Z,71.45
2023-08-29T23:13:18.341Z,71.45
2023-08-29T23:15:47.482Z,71.25
2023-08-29T23:18:14.801Z,71.23
2023-08-29T23:20:41.907Z,71.46
2023-08-29T23:23:09.370Z,71.53
2023-08-29T23:25:37.437Z,71.59
2023-08-29T23:28:04.735Z,71.65
2023-08-29T23:30:35.502Z,71.75
2023-08-29T23:33:03.654Z,71.69
2023-08-29T23:35:30.993Z,71.60
2023-08-29T23:37:58.255Z,71.66
2023-08-29T23:40:26.856Z,71.60
2023-08-29T23:42:54.228Z,71.60
2023-08-29T23:45:21.484Z,71.67
2023-08-29T23:47:48.605Z,71.95
2023-08-29T23:50:16.036Z,71.80
2023-08-29T23:52:43.328Z,71.91
2023-08-29T23:55:10.497Z,72.19
2023-08-29T23:57:37.562Z,72.29
